Time;durP1;ratioP1;P1;durP2;ratioP2;P2;SDS_P1;SDS_P2;PMS_P1;PMS_P2;Temp;Humidity;BMP_temperature;BMP_pressure;BME280_temperature;BME280_humidity;BME280_pressure;Samples;Min_cycle;Max_cycle;Signal;HPM_P1;HPM_P2
2023/12/30 00:00:48;;;;;;;15.07;2.33;;;;;;;;;;5053391;28;20028;-61
2023/12/30 00:03:13;;;;;;;8.38;2.30;;;;;;;;;;5052861;28;20033;-62
2023/12/30 00:05:39;;;;;;;6.43;1.70;;;;;;;;;;5070887;28;20392;-60
2023/12/30 00:08:04;;;;;;;6.40;2.42;;;;;;;;;;5073274;28;20029;-61
2023/12/30 00:10:30;;;;;;;7.03;1.98;;;;;;;;;;5042904;28;20065;-61
2023/12/30 00:12:56;;;;;;;5.50;1.80;;;;;;;;;;5033543;28;20025;-61
2023/12/30 00:15:21;;;;;;;7.85;2.72;;;;;;;;;;5049703;28;20044;-61
2023/12/30 00:17:47;;;;;;;12.55;3.40;;;;;;;;;;5053061;28;20035;-61
2023/12/30 00:20:12;;;;;;;10.40;2.70;;;;;;;;;;5053032;28;20710;-62
2023/12/30 00:22:37;;;;;;;9.95;2.42;;;;;;;;;;5051810;28;20067;-61
2023/12/30 00:25:04;;;;;;;13.18;2.50;;;;;;;;;;5064687;28;20036;-61
2023/12/30 00:27:29;;;;;;;17.23;2.28;;;;;;;;;;5063558;28;20055;-62
2023/12/30 00:29:56;;;;;;;6.75;2.40;;;;;;;;;;5052566;28;20393;-61
2023/12/30 00:32:21;;;;;;;10.23;2.30;;;;;;;;;;5052201;28;20090;-62
2023/12/30 00:34:47;;;;;;;7.03;2.30;;;;;;;;;;5064262;28;20083;-61
2023/12/30 00:37:14;;;;;;;8.35;2.85;;;;;;;;;;5072522;28;20051;-63
2023/12/30 00:39:41;;;;;;;5.43;1.95;;;;;;;;;;5072510;28;20028;-61
2023/12/30 00:42:06;;;;;;;7.22;2.33;;;;;;;;;;5072693;28;20071;-63
2023/12/30 00:44:31;;;;;;;10.20;2.88;;;;;;;;;;5062206;28;20061;-62
2023/12/30 00:46:57;;;;;;;12.02;2.72;;;;;;;;;;5052657;28;20079;-61
2023/12/30 00:49:22;;;;;;;13.32;2.92;;;;;;;;;;5051517;28;20028;-61
2023/12/30 00:51:47;;;;;;;8.13;2.45;;;;;;;;;;5052450;28;20055;-61
2023/12/30 00:54:13;;;;;;;9.77;2.22;;;;;;;;;;5054506;28;20033;-62
2023/12/30 00:56:38;;;;;;;7.88;2.17;;;;;;;;;;5069936;28;20074;-63
2023/12/30 00:59:04;;;;;;;7.38;2.08;;;;;;;;;;5052531;28;20381;-62
2023/12/30 01:01:29;;;;;;;6.97;2.10;;;;;;;;;;5051469;28;20064;-62
2023/12/30 01:03:54;;;;;;;9.60;2.53;;;;;;;;;;5056245;28;20051;-62
2023/12/30 01:06:20;;;;;;;4.90;2.05;;;;;;;;;;5059118;28;20063;-62
2023/12/30 01:08:45;;;;;;;9.52;2.03;;;;;;;;;;5072234;28;20457;-61
2023/12/30 01:11:12;;;;;;;8.55;2.05;;;;;;;;;;5072099;28;20119;-61
2023/12/30 01:13:37;;;;;;;8.73;2.00;;;;;;;;;;5051778;28;20034;-61
2023/12/30 01:16:06;;;;;;;8.73;2.53;;;;;;;;;;5051948;28;20404;-61
2023/12/30 01:18:31;;;;;;;5.78;2.08;;;;;;;;;;5071226;28;20515;-62
2023/12/30 01:20:57;;;;;;;7.18;2.17;;;;;;;;;;5071410;28;20546;-62
2023/12/30 01:23:22;;;;;;;8.13;2.13;;;;;;;;;;5068850;28;20041;-63
2023/12/30 01:25:48;;;;;;;6.75;2.05;;;;;;;;;;5061325;28;20060;-62
2023/12/30 01:28:13;;;;;;;9.60;2.30;;;;;;;;;;5053310;28;20465;-64
2023/12/30 01:30:39;;;;;;;6.13;2.08;;;;;;;;;;5047049;28;20036;-62
2023/12/30 01:33:05;;;;;;;7.82;2.47;;;;;;;;;;5051516;28;20029;-63
2023/12/30 01:35:31;;;;;;;8.57;2.10;;;;;;;;;;5059726;28;20525;-62
2023/12/30 01:37:56;;;;;;;4.25;1.90;;;;;;;;;;5051903;28;20024;-63
2023/12/30 01:40:22;;;;;;;3.78;1.77;;;;;;;;;;5050874;28;20033;-64
2023/12/30 01:42:47;;;;;;;7.30;2.38;;;;;;;;;;5051623;28;20044;-63
2023/12/30 01:45:13;;;;;;;6.55;2.00;;;;;;;;;;5066136;28;20040;-64
2023/12/30 01:47:39;;;;;;;10.25;1.90;;;;;;;;;;5070949;28;20028;-62
2023/12/30 01:50:05;;;;;;;6.75;2.00;;;;;;;;;;5071771;28;20114;-62
2023/12/30 01:52:33;;;;;;;8.13;1.90;;;;;;;;;;5070747;28;20465;-62
2023/12/30 01:54:58;;;;;;;6.40;1.83;;;;;;;;;;5069243;28;20365;-62
2023/12/30 01:57:24;;;;;;;5.13;1.67;;;;;;;;;;5062734;28;20031;-62
2023/12/30 01:59:49;;;;;;;6.60;1.83;;;;;;;;;;5051193;28;20028;-62
2023/12/30 02:02:15;;;;;;;4.45;1.40;;;;;;;;;;5050905;28;20100;-63
2023/12/30 02:04:41;;;;;;;7.32;1.80;;;;;;;;;;5052083;28;20037;-62
2023/12/30 02:07:06;;;;;;;7.63;2.08;;;;;;;;;;5051129;28;20041;-62
2023/12/30 02:09:32;;;;;;;12.07;2.10;;;;;;;;;;5050123;28;20647;-62
2023/12/30 02:11:58;;;;;;;11.55;1.90;;;;;;;;;;5051167;28;20029;-62
2023/12/30 02:14:29;;;;;;;6.32;1.42;;;;;;;;;;5033194;28;20346;-61
2023/12/30 02:16:54;;;;;;;9.82;1.90;;;;;;;;;;5033835;28;20040;-61
2023/12/30 02:19:20;;;;;;;7.50;2.45;;;;;;;;;;5050336;28;20024;-63
2023/12/30 02:21:46;;;;;;;8.85;2.42;;;;;;;;;;5050821;28;20033;-62
2023/12/30 02:24:11;;;;;;;9.65;2.42;;;;;;;;;;5053015;28;20045;-62
2023/12/30 02:26:37;;;;;;;6.13;1.67;;;;;;;;;;5032371;28;20457;-63
2023/12/30 02:29:02;;;;;;;9.48;2.35;;;;;;;;;;5047068;28;20378;-62
2023/12/30 02:31:28;;;;;;;5.00;1.52;;;;;;;;;;5030016;28;20040;-63
2023/12/30 02:33:53;;;;;;;11.57;2.38;;;;;;;;;;5052887;28;20028;-62
2023/12/30 02:36:18;;;;;;;6.47;2.40;;;;;;;;;;5074286;28;20097;-64
2023/12/30 02:38:44;;;;;;;8.45;2.25;;;;;;;;;;5075085;28;20516;-62
2023/12/30 02:41:09;;;;;;;9.60;2.72;;;;;;;;;;5074728;28;20036;-63
2023/12/30 02:43:46;;;;;;;8.35;2.00;;;;;;;;;;5069090;28;20115;-62
2023/12/30 02:46:12;;;;;;;10.07;1.90;;;;;;;;;;5055052;28;20036;-63
2023/12/30 02:48:38;;;;;;;8.50;2.33;;;;;;;;;;5054277;28;20029;-63
2023/12/30 02:51:03;;;;;;;3.55;1.48;;;;;;;;;;5054691;28;20086;-62
2023/12/30 02:53:28;;;;;;;7.93;2.20;;;;;;;;;;5052172;28;20044;-62
2023/12/30 02:55:54;;;;;;;15.52;2.50;;;;;;;;;;5054560;28;20024;-63
2023/12/30 02:58:19;;;;;;;8.38;2.28;;;;;;;;;;5053548;28;20472;-64
2023/12/30 03:00:44;;;;;;;3.83;1.73;;;;;;;;;;5055043;28;20059;-63
2023/12/30 03:03:10;;;;;;;4.25;1.70;;;;;;;;;;5054851;28;20043;-63
2023/12/30 03:05:35;;;;;;;11.63;2.42;;;;;;;;;;5073691;28;20107;-64
2023/12/30 03:08:01;;;;;;;8.32;2.45;;;;;;;;;;5056647;28;20031;-63
2023/12/30 03:10:26;;;;;;;8.50;2.40;;;;;;;;;;5073907;28;20028;-63
2023/12/30 03:12:52;;;;;;;4.82;1.77;;;;;;;;;;5068856;28;20040;-63
2023/12/30 03:15:17;;;;;;;10.00;2.22;;;;;;;;;;5073573;28;20107;-63
2023/12/30 03:17:42;;;;;;;12.30;2.67;;;;;;;;;;5074156;28;20028;-62
2023/12/30 03:20:10;;;;;;;13.55;2.35;;;;;;;;;;5074389;28;20032;-62
2023/12/30 03:22:35;;;;;;;13.15;2.63;;;;;;;;;;5070738;28;20639;-62
2023/12/30 03:25:01;;;;;;;11.27;2.90;;;;;;;;;;5074234;28;20036;-62
2023/12/30 03:27:26;;;;;;;10.27;2.33;;;;;;;;;;5073478;28;20107;-62
2023/12/30 03:29:52;;;;;;;10.85;2.50;;;;;;;;;;5034113;28;20033;-62
2023/12/30 03:32:17;;;;;;;8.35;2.17;;;;;;;;;;5055733;28;20040;-64
2023/12/30 03:34:43;;;;;;;10.48;2.47;;;;;;;;;;5074009;28;20021;-63
2023/12/30 03:37:08;;;;;;;13.60;3.20;;;;;;;;;;5073765;28;20054;-64
2023/12/30 03:39:33;;;;;;;8.63;2.08;;;;;;;;;;5073093;28;20630;-64
2023/12/30 03:41:59;;;;;;;8.70;2.38;;;;;;;;;;5063925;28;20037;-63
2023/12/30 03:44:24;;;;;;;7.82;2.28;;;;;;;;;;5052808;28;20072;-62
2023/12/30 03:46:49;;;;;;;8.93;2.70;;;;;;;;;;5053827;28;20454;-62
2023/12/30 03:49:15;;;;;;;7.63;1.67;;;;;;;;;;5052951;28;20119;-63
2023/12/30 03:51:40;;;;;;;6.45;2.50;;;;;;;;;;5054099;28;20025;-62
2023/12/30 03:54:06;;;;;;;9.45;2.58;;;;;;;;;;5035873;28;20104;-62
2023/12/30 03:56:31;;;;;;;10.32;2.30;;;;;;;;;;5052772;28;20361;-62
2023/12/30 03:58:59;;;;;;;7.78;2.10;;;;;;;;;;5053444;28;20499;-62
2023/12/30 04:01:25;;;;;;;7.30;2.00;;;;;;;;;;5052914;28;20040;-62
2023/12/30 04:03:51;;;;;;;13.23;3.20;;;;;;;;;;5073448;28;20025;-61
2023/12/30 04:06:18;;;;;;;11.05;2.50;;;;;;;;;;5054739;28;20074;-63
2023/12/30 04:08:44;;;;;;;4.78;1.60;;;;;;;;;;5069754;28;20067;-61
2023/12/30 04:11:09;;;;;;;8.70;2.20;;;;;;;;;;5073111;28;20068;-61
2023/12/30 04:13:35;;;;;;;11.45;2.55;;;;;;;;;;5072348;28;20036;-63
2023/12/30 04:16:00;;;;;;;10.30;2.78;;;;;;;;;;5073157;28;20524;-61
2023/12/30 04:18:26;;;;;;;9.35;2.00;;;;;;;;;;5067313;28;20028;-61
2023/12/30 04:20:51;;;;;;;5.18;1.85;;;;;;;;;;5034500;28;20041;-62
2023/12/30 04:23:16;;;;;;;8.43;1.67;;;;;;;;;;5031776;28;20049;-64
2023/12/30 04:25:42;;;;;;;4.85;1.85;;;;;;;;;;5033297;28;20114;-63
2023/12/30 04:28:07;;;;;;;5.07;1.52;;;;;;;;;;5037369;28;20090;-63
2023/12/30 04:30:33;;;;;;;4.15;1.55;;;;;;;;;;5070471;28;20035;-62
2023/12/30 04:32:58;;;;;;;3.85;1.50;;;;;;;;;;5072880;28;20024;-63
2023/12/30 04:35:24;;;;;;;3.42;1.70;;;;;;;;;;5058449;28;20088;-61
2023/12/30 04:37:49;;;;;;;8.50;2.03;;;;;;;;;;5016034;28;20519;-61
2023/12/30 04:40:14;;;;;;;5.95;1.83;;;;;;;;;;5054193;28;20064;-64
2023/12/30 04:42:40;;;;;;;9.00;2.03;;;;;;;;;;5052418;28;20033;-63
2023/12/30 04:45:12;;;;;;;4.45;2.03;;;;;;;;;;5052457;28;20079;-63
2023/12/30 04:47:37;;;;;;;5.68;2.20;;;;;;;;;;5052394;28;20029;-62
2023/12/30 04:50:03;;;;;;;7.70;3.05;;;;;;;;;;5070758;28;20039;-62
2023/12/30 04:52:28;;;;;;;4.63;2.13;;;;;;;;;;5071299;28;20131;-62
2023/12/30 04:54:54;;;;;;;6.15;2.20;;;;;;;;;;5071708;28;20028;-62
2023/12/30 04:57:19;;;;;;;7.03;2.40;;;;;;;;;;5071451;28;20446;-63
2023/12/30 04:59:45;;;;;;;5.80;2.17;;;;;;;;;;5068336;28;20468;-63
2023/12/30 05:02:10;;;;;;;6.38;2.72;;;;;;;;;;5063398;28;20037;-63
2023/12/30 05:04:35;;;;;;;6.18;2.72;;;;;;;;;;5051171;28;20029;-63
2023/12/30 05:07:01;;;;;;;9.43;2.72;;;;;;;;;;5052200;28;20101;-63
2023/12/30 05:09:26;;;;;;;7.28;2.38;;;;;;;;;;5052723;28;20421;-64
2023/12/30 05:11:51;;;;;;;8.05;2.60;;;;;;;;;;5068336;28;20373;-63
2023/12/30 05:14:19;;;;;;;8.40;2.70;;;;;;;;;;5071285;28;20040;-64
2023/12/30 05:16:45;;;;;;;9.20;2.60;;;;;;;;;;5072127;28;20032;-63
2023/12/30 05:19:11;;;;;;;12.93;2.90;;;;;;;;;;5070389;28;20036;-63
2023/12/30 05:21:37;;;;;;;8.55;2.33;;;;;;;;;;5040504;28;20413;-64
2023/12/30 05:24:03;;;;;;;9.65;2.25;;;;;;;;;;5031734;28;20049;-63
2023/12/30 05:26:28;;;;;;;10.40;2.72;;;;;;;;;;5031242;28;20021;-63
2023/12/30 05:28:55;;;;;;;6.60;2.47;;;;;;;;;;5053464;28;20036;-63
2023/12/30 05:31:21;;;;;;;14.13;2.60;;;;;;;;;;5070938;28;20102;-63
2023/12/30 05:33:46;;;;;;;9.07;2.45;;;;;;;;;;5071882;28;20032;-62
2023/12/30 05:36:12;;;;;;;10.10;2.63;;;;;;;;;;5072041;28;20453;-64
2023/12/30 05:38:37;;;;;;;5.65;2.08;;;;;;;;;;5068159;28;20032;-64
2023/12/30 05:41:02;;;;;;;12.35;2.78;;;;;;;;;;5068213;28;20033;-63
2023/12/30 05:43:28;;;;;;;6.47;1.95;;;;;;;;;;5055886;28;20029;-63
2023/12/30 05:45:53;;;;;;;12.77;2.85;;;;;;;;;;5051698;28;20072;-62
2023/12/30 05:48:19;;;;;;;6.72;2.47;;;;;;;;;;5056561;28;20064;-61
2023/12/30 05:50:44;;;;;;;11.18;2.55;;;;;;;;;;5071582;28;20024;-61
2023/12/30 05:53:11;;;;;;;9.60;2.97;;;;;;;;;;5071601;28;20107;-61
2023/12/30 05:55:37;;;;;;;11.80;2.97;;;;;;;;;;5070708;28;20024;-61
2023/12/30 05:58:03;;;;;;;7.57;2.50;;;;;;;;;;5068662;28;20029;-61
2023/12/30 06:00:28;;;;;;;11.07;2.70;;;;;;;;;;5050667;28;20480;-62
2023/12/30 06:02:54;;;;;;;10.85;2.92;;;;;;;;;;5051512;28;20033;-60
2023/12/30 06:05:19;;;;;;;12.38;2.72;;;;;;;;;;5050637;28;20040;-63
2023/12/30 06:07:46;;;;;;;14.65;3.45;;;;;;;;;;5050929;28;20166;-62
2023/12/30 06:10:11;;;;;;;10.07;2.80;;;;;;;;;;5068818;28;20043;-62
2023/12/30 06:12:36;;;;;;;12.20;2.60;;;;;;;;;;5070232;28;20028;-62
2023/12/30 06:15:02;;;;;;;11.70;2.88;;;;;;;;;;5071510;28;20086;-62
2023/12/30 06:17:27;;;;;;;7.10;2.70;;;;;;;;;;5069314;28;20037;-62
2023/12/30 06:19:53;;;;;;;8.93;2.45;;;;;;;;;;5071505;28;20036;-62
2023/12/30 06:22:18;;;;;;;11.30;2.40;;;;;;;;;;5044463;28;20128;-64
2023/12/30 06:24:44;;;;;;;10.73;2.45;;;;;;;;;;5031438;28;20048;-62
2023/12/30 06:27:09;;;;;;;6.72;2.15;;;;;;;;;;5031444;28;20041;-61
2023/12/30 06:29:34;;;;;;;8.13;2.40;;;;;;;;;;5067334;28;20117;-61
2023/12/30 06:32:00;;;;;;;9.35;2.80;;;;;;;;;;5056163;28;20125;-63
2023/12/30 06:34:25;;;;;;;13.35;2.75;;;;;;;;;;5050435;28;20426;-62
2023/12/30 06:36:50;;;;;;;9.50;2.28;;;;;;;;;;5051193;28;20366;-62
2023/12/30 06:39:17;;;;;;;12.48;2.55;;;;;;;;;;5066611;28;20067;-63
2023/12/30 06:41:43;;;;;;;10.13;2.20;;;;;;;;;;5058951;28;20033;-62
2023/12/30 06:44:09;;;;;;;10.00;2.42;;;;;;;;;;5051028;28;20041;-62
2023/12/30 06:46:34;;;;;;;12.50;2.67;;;;;;;;;;5049989;28;20166;-62
2023/12/30 06:49:00;;;;;;;11.23;2.35;;;;;;;;;;5065060;28;20029;-63
2023/12/30 06:51:27;;;;;;;7.10;2.30;;;;;;;;;;5067559;28;20384;-62
2023/12/30 06:53:55;;;;;;;11.88;2.63;;;;;;;;;;5030928;28;20048;-62
2023/12/30 06:56:21;;;;;;;5.65;1.80;;;;;;;;;;5030231;28;20034;-62
2023/12/30 06:58:46;;;;;;;13.57;2.75;;;;;;;;;;5052243;28;20041;-62
2023/12/30 07:01:12;;;;;;;17.00;3.15;;;;;;;;;;5066589;28;20111;-62
2023/12/30 07:03:38;;;;;;;7.97;2.33;;;;;;;;;;5070398;28;20040;-62
2023/12/30 07:06:04;;;;;;;7.97;2.33;;;;;;;;;;5071143;28;20373;-61
2023/12/30 07:08:29;;;;;;;12.65;2.78;;;;;;;;;;5070047;28;20036;-62
2023/12/30 07:10:55;;;;;;;9.98;2.75;;;;;;;;;;5053454;28;20557;-62
2023/12/30 07:13:20;;;;;;;15.32;2.97;;;;;;;;;;5049998;28;20052;-61
2023/12/30 07:15:47;;;;;;;7.68;2.05;;;;;;;;;;5050883;28;20033;-62
2023/12/30 07:18:13;;;;;;;11.10;3.67;;;;;;;;;;5052099;28;20108;-62
2023/12/30 07:20:38;;;;;;;10.70;2.58;;;;;;;;;;5054047;28;20116;-62
2023/12/30 07:23:05;;;;;;;9.75;2.55;;;;;;;;;;5034736;28;20104;-61
2023/12/30 07:25:31;;;;;;;12.35;2.70;;;;;;;;;;5033279;28;20473;-62
2023/12/30 07:27:56;;;;;;;13.30;2.75;;;;;;;;;;5047885;28;20032;-63
2023/12/30 07:30:22;;;;;;;8.93;2.13;;;;;;;;;;5073102;28;20029;-62
2023/12/30 07:32:47;;;;;;;9.07;2.63;;;;;;;;;;5074454;28;20422;-61
2023/12/30 07:35:13;;;;;;;11.45;2.78;;;;;;;;;;5074065;28;20059;-62
2023/12/30 07:37:38;;;;;;;11.02;2.70;;;;;;;;;;5070038;28;20024;-62
2023/12/30 07:40:05;;;;;;;9.98;2.60;;;;;;;;;;5074119;28;20055;-61
2023/12/30 07:42:31;;;;;;;13.52;3.08;;;;;;;;;;5071489;28;20107;-60
2023/12/30 07:44:56;;;;;;;18.67;2.90;;;;;;;;;;5074346;28;20484;-61
2023/12/30 07:47:22;;;;;;;10.63;3.10;;;;;;;;;;5070272;28;20569;-62
2023/12/30 07:49:47;;;;;;;6.70;2.67;;;;;;;;;;5053619;28;20115;-63
2023/12/30 07:52:13;;;;;;;13.15;2.90;;;;;;;;;;5046207;28;20424;-63
2023/12/30 07:54:38;;;;;;;20.05;4.07;;;;;;;;;;5032782;28;20366;-63
2023/12/30 07:57:04;;;;;;;12.77;3.30;;;;;;;;;;5034132;28;20031;-63
2023/12/30 07:59:29;;;;;;;9.60;3.28;;;;;;;;;;5052794;28;20036;-61
2023/12/30 08:01:56;;;;;;;11.95;2.97;;;;;;;;;;5053738;28;20453;-62
2023/12/30 08:04:22;;;;;;;17.30;3.33;;;;;;;;;;5052573;28;20025;-62
2023/12/30 08:06:48;;;;;;;10.45;3.00;;;;;;;;;;5053362;28;20032;-62
2023/12/30 08:09:14;;;;;;;11.52;3.13;;;;;;;;;;5053710;28;20029;-62
2023/12/30 08:11:41;;;;;;;11.35;3.15;;;;;;;;;;5052893;28;20036;-63
2023/12/30 08:14:07;;;;;;;10.02;3.20;;;;;;;;;;5035310;28;20033;-63
2023/12/30 08:16:35;;;;;;;11.57;3.05;;;;;;;;;;5053111;28;20040;-64
2023/12/30 08:19:02;;;;;;;7.32;2.53;;;;;;;;;;5015868;28;20036;-63
2023/12/30 08:21:28;;;;;;;11.07;3.00;;;;;;;;;;5032696;28;20033;-63
2023/12/30 08:23:54;;;;;;;16.33;2.95;;;;;;;;;;5035058;28;20050;-64
2023/12/30 08:26:20;;;;;;;12.93;3.40;;;;;;;;;;5030767;28;20043;-63
2023/12/30 08:28:46;;;;;;;10.95;3.15;;;;;;;;;;5034509;28;20206;-63
2023/12/30 08:31:12;;;;;;;15.05;2.30;;;;;;;;;;5032364;28;20036;-62
2023/12/30 08:33:38;;;;;;;10.90;2.78;;;;;;;;;;5032271;28;20693;-63
2023/12/30 08:36:04;;;;;;;8.70;2.95;;;;;;;;;;5033522;28;20026;-63
2023/12/30 08:38:31;;;;;;;13.05;2.97;;;;;;;;;;5037837;28;20409;-62
2023/12/30 08:40:57;;;;;;;15.52;2.60;;;;;;;;;;5033273;28;20041;-62
2023/12/30 08:43:23;;;;;;;18.55;3.45;;;;;;;;;;5032050;28;20029;-62
2023/12/30 08:45:49;;;;;;;9.93;2.65;;;;;;;;;;5032817;28;20032;-62
2023/12/30 08:48:14;;;;;;;16.80;2.85;;;;;;;;;;5032103;28;20061;-63
2023/12/30 08:50:39;;;;;;;11.85;2.67;;;;;;;;;;5030740;28;20418;-62
2023/12/30 08:53:05;;;;;;;12.07;3.15;;;;;;;;;;5018026;28;20038;-63
2023/12/30 08:55:31;;;;;;;9.25;3.10;;;;;;;;;;5012098;28;20109;-62
2023/12/30 08:57:56;;;;;;;13.40;2.70;;;;;;;;;;5033707;28;20120;-64
2023/12/30 09:00:21;;;;;;;10.75;2.35;;;;;;;;;;5051502;28;20080;-62
2023/12/30 09:02:47;;;;;;;11.93;2.80;;;;;;;;;;5022504;28;20026;-62
2023/12/30 09:05:17;;;;;;;6.85;2.40;;;;;;;;;;5012686;28;20109;-63
2023/12/30 09:07:43;;;;;;;10.98;2.80;;;;;;;;;;5022331;28;20547;-63
2023/12/30 09:10:08;;;;;;;11.13;2.75;;;;;;;;;;5047790;28;20029;-63
2023/12/30 09:12:34;;;;;;;12.88;3.10;;;;;;;;;;5031225;28;20044;-62
2023/12/30 09:14:59;;;;;;;11.82;2.97;;;;;;;;;;5032065;28;20036;-61
2023/12/30 09:17:24;;;;;;;10.77;2.53;;;;;;;;;;5039057;28;20040;-64
2023/12/30 09:19:50;;;;;;;17.02;3.45;;;;;;;;;;5054136;28;20393;-62
2023/12/30 09:22:16;;;;;;;17.48;3.47;;;;;;;;;;5030896;28;20057;-62
2023/12/30 09:24:41;;;;;;;11.82;2.80;;;;;;;;;;5035194;28;20508;-62
2023/12/30 09:27:08;;;;;;;14.43;2.60;;;;;;;;;;5044258;28;20444;-63
2023/12/30 09:29:33;;;;;;;9.48;2.78;;;;;;;;;;5050481;28;20385;-63
2023/12/30 09:31:59;;;;;;;10.73;2.65;;;;;;;;;;5052000;28;20098;-63
2023/12/30 09:34:24;;;;;;;8.95;3.15;;;;;;;;;;5049734;28;20362;-62
2023/12/30 09:36:50;;;;;;;8.20;2.83;;;;;;;;;;5052438;28;20032;-62
2023/12/30 09:39:15;;;;;;;10.80;2.55;;;;;;;;;;5034047;28;20025;-62
2023/12/30 09:41:41;;;;;;;10.10;2.95;;;;;;;;;;5050709;28;20037;-62
2023/12/30 09:44:08;;;;;;;8.65;2.67;;;;;;;;;;5051277;28;20029;-62
2023/12/30 09:46:36;;;;;;;11.60;3.03;;;;;;;;;;5051131;28;20147;-62
2023/12/30 09:49:03;;;;;;;15.25;2.90;;;;;;;;;;5068408;28;20082;-62
2023/12/30 09:51:31;;;;;;;13.15;3.33;;;;;;;;;;5054220;28;20029;-61
2023/12/30 09:53:57;;;;;;;13.82;3.30;;;;;;;;;;5051546;28;20461;-62
2023/12/30 09:56:24;;;;;;;16.52;3.25;;;;;;;;;;5050687;28;20067;-62
2023/12/30 09:58:50;;;;;;;13.02;3.65;;;;;;;;;;5067827;28;20043;-62
2023/12/30 10:01:16;;;;;;;13.25;3.50;;;;;;;;;;5071626;28;20025;-61
2023/12/30 10:03:41;;;;;;;14.20;3.10;;;;;;;;;;5038028;28;20021;-62
2023/12/30 10:06:11;;;;;;;11.93;3.00;;;;;;;;;;5031252;28;20032;-62
2023/12/30 10:08:37;;;;;;;10.07;3.00;;;;;;;;;;5049372;28;20032;-62
2023/12/30 10:11:08;;;;;;;13.35;3.47;;;;;;;;;;5051395;28;20285;-62
2023/12/30 10:13:38;;;;;;;15.63;3.47;;;;;;;;;;5050693;28;20035;-62
2023/12/30 10:16:05;;;;;;;6.57;2.57;;;;;;;;;;5034270;28;20389;-62
2023/12/30 10:18:38;;;;;;;10.63;3.33;;;;;;;;;;5066593;28;20256;-62
2023/12/30 10:21:05;;;;;;;12.02;3.38;;;;;;;;;;5053773;28;20048;-62
2023/12/30 10:23:31;;;;;;;11.48;3.63;;;;;;;;;;5062428;28;20076;-62
2023/12/30 10:25:58;;;;;;;12.88;3.33;;;;;;;;;;5030984;28;20483;-64
2023/12/30 10:28:23;;;;;;;15.70;4.45;;;;;;;;;;5055018;28;20033;-63
2023/12/30 10:31:06;;;;;;;7.78;3.20;;;;;;;;;;5059042;28;20033;-63
2023/12/30 10:33:32;;;;;;;14.32;3.30;;;;;;;;;;5030538;28;20355;-63
2023/12/30 10:35:58;;;;;;;12.38;3.55;;;;;;;;;;5030931;28;20033;-63
2023/12/30 10:38:24;;;;;;;13.40;3.78;;;;;;;;;;5030860;28;20482;-62
2023/12/30 10:40:50;;;;;;;12.77;2.67;;;;;;;;;;5013776;28;20379;-63
2023/12/30 10:43:20;;;;;;;12.13;3.53;;;;;;;;;;5070921;28;20044;-62
2023/12/30 10:45:59;;;;;;;13.48;3.63;;;;;;;;;;5070294;28;20112;-63
2023/12/30 10:48:33;;;;;;;17.25;4.55;;;;;;;;;;5052236;28;20055;-62
2023/12/30 10:51:00;;;;;;;12.90;3.40;;;;;;;;;;5069933;28;20029;-62
2023/12/30 10:53:29;;;;;;;10.20;3.47;;;;;;;;;;5065770;28;20380;-62
2023/12/30 10:56:03;;;;;;;15.50;3.65;;;;;;;;;;5054769;28;20048;-62
2023/12/30 10:58:34;;;;;;;10.88;3.55;;;;;;;;;;5053941;28;20037;-62
2023/12/30 11:01:04;;;;;;;;;;;;;;;;;;5055235;28;20112;-61
2023/12/30 11:03:32;;;;;;;10.25;3.05;;;;;;;;;;5054978;28;19917;-63
2023/12/30 11:06:07;;;;;;;14.90;3.28;;;;;;;;;;5054503;28;20070;-63
2023/12/30 11:08:33;;;;;;;11.90;3.05;;;;;;;;;;5053529;28;20052;-63
2023/12/30 11:11:03;;;;;;;10.95;3.20;;;;;;;;;;5054401;28;20033;-62
2023/12/30 11:13:35;;;;;;;11.07;3.70;;;;;;;;;;5055033;28;20025;-63
2023/12/30 11:16:18;;;;;;;12.52;3.40;;;;;;;;;;5068382;28;20064;-63
2023/12/30 11:18:55;;;;;;;12.27;2.88;;;;;;;;;;5073648;28;20025;-62
2023/12/30 11:21:43;;;;;;;6.78;2.38;;;;;;;;;;5070017;28;20072;-63
2023/12/30 11:24:15;;;;;;;10.05;2.80;;;;;;;;;;5054327;28;20048;-62
2023/12/30 11:26:42;;;;;;;10.40;3.15;;;;;;;;;;5052958;28;20039;-62
2023/12/30 11:29:12;;;;;;;15.73;3.67;;;;;;;;;;5036410;28;20045;-62
2023/12/30 11:31:41;;;;;;;16.10;3.38;;;;;;;;;;5055487;28;20047;-62
2023/12/30 11:34:07;;;;;;;15.00;3.25;;;;;;;;;;5054127;28;20067;-62
2023/12/30 11:36:32;;;;;;;11.38;3.10;;;;;;;;;;5053164;28;20047;-62
2023/12/30 11:38:59;;;;;;;6.40;2.72;;;;;;;;;;5054190;28;20108;-62
2023/12/30 11:41:27;;;;;;;10.95;2.95;;;;;;;;;;5054420;28;20116;-63
2023/12/30 11:43:58;;;;;;;13.65;3.13;;;;;;;;;;5056227;28;20021;-62
2023/12/30 11:46:25;;;;;;;14.65;3.33;;;;;;;;;;5073481;28;20032;-63
2023/12/30 11:48:51;;;;;;;12.02;3.35;;;;;;;;;;5074119;28;20051;-62
2023/12/30 11:51:34;;;;;;;13.43;3.78;;;;;;;;;;5072045;28;20024;-62
2023/12/30 11:54:03;;;;;;;8.02;2.85;;;;;;;;;;5066780;28;20060;-62
2023/12/30 11:56:29;;;;;;;11.00;3.10;;;;;;;;;;5052761;28;20491;-62
2023/12/30 11:58:54;;;;;;;13.90;3.40;;;;;;;;;;5053773;28;20029;-62
2023/12/30 12:01:20;;;;;;;15.90;4.32;;;;;;;;;;5054580;28;20044;-62
2023/12/30 12:03:46;;;;;;;13.10;3.45;;;;;;;;;;5071560;28;20405;-62
2023/12/30 12:06:12;;;;;;;16.85;3.75;;;;;;;;;;5073254;28;20464;-61
2023/12/30 12:08:38;;;;;;;12.77;3.85;;;;;;;;;;5072695;28;20050;-61
2023/12/30 12:11:05;;;;;;;11.20;3.58;;;;;;;;;;5039774;28;20446;-61
2023/12/30 12:13:30;;;;;;;11.18;3.65;;;;;;;;;;5052835;28;20120;-62
2023/12/30 12:15:56;;;;;;;8.32;2.80;;;;;;;;;;5053126;28;20112;-62
2023/12/30 12:18:23;;;;;;;11.57;3.40;;;;;;;;;;5053360;28;20037;-61
2023/12/30 12:20:49;;;;;;;13.77;3.85;;;;;;;;;;5052643;28;20033;-61
2023/12/30 12:23:18;;;;;;;16.55;3.38;;;;;;;;;;5070624;28;20488;-62
2023/12/30 12:25:44;;;;;;;14.88;3.40;;;;;;;;;;5049933;28;20041;-62
2023/12/30 12:28:11;;;;;;;12.38;3.63;;;;;;;;;;5031805;28;20073;-62
2023/12/30 12:30:37;;;;;;;9.80;2.90;;;;;;;;;;5030942;28;20470;-62
2023/12/30 12:33:03;;;;;;;11.85;3.50;;;;;;;;;;5051038;28;20120;-62
2023/12/30 12:35:30;;;;;;;6.32;2.33;;;;;;;;;;5051965;28;20055;-62
2023/12/30 12:37:57;;;;;;;16.23;2.80;;;;;;;;;;5035148;28;20025;-62
2023/12/30 12:40:22;;;;;;;16.08;2.90;;;;;;;;;;5052972;28;20036;-62
2023/12/30 12:42:47;;;;;;;11.40;2.97;;;;;;;;;;5065824;28;20480;-62
2023/12/30 12:45:13;;;;;;;12.15;3.22;;;;;;;;;;5072634;28;20112;-62
2023/12/30 12:47:38;;;;;;;13.50;3.38;;;;;;;;;;5072093;28;20135;-62
2023/12/30 12:50:04;;;;;;;10.05;2.40;;;;;;;;;;5072088;28;20103;-61
2023/12/30 12:52:29;;;;;;;14.73;3.10;;;;;;;;;;5069076;28;20047;-62
2023/12/30 12:54:55;;;;;;;11.55;2.75;;;;;;;;;;5060868;28;20076;-61
2023/12/30 12:57:20;;;;;;;6.95;2.42;;;;;;;;;;5032237;28;20116;-62
2023/12/30 12:59:46;;;;;;;7.03;2.60;;;;;;;;;;5031685;28;20439;-61
2023/12/30 13:02:11;;;;;;;13.15;2.63;;;;;;;;;;5048063;28;20032;-62
2023/12/30 13:04:37;;;;;;;14.07;2.40;;;;;;;;;;5071076;28;20381;-62
2023/12/30 13:07:03;;;;;;;12.05;2.70;;;;;;;;;;5051713;28;20032;-61
2023/12/30 13:12:13;;;;;;;8.35;2.60;;;;;;;;;;5032208;28;20036;-62
2023/12/30 13:14:39;;;;;;;12.57;2.47;;;;;;;;;;5032110;28;20048;-62
2023/12/30 13:17:11;;;;;;;10.25;2.05;;;;;;;;;;5051652;28;20458;-62
2023/12/30 13:19:37;;;;;;;11.13;2.40;;;;;;;;;;5057630;28;20039;-63
2023/12/30 13:22:03;;;;;;;4.80;1.77;;;;;;;;;;5054783;28;20104;-61
2023/12/30 13:24:29;;;;;;;5.53;1.60;;;;;;;;;;5070640;28;20151;-62
2023/12/30 13:26:55;;;;;;;7.07;2.33;;;;;;;;;;5027502;28;20124;-62
2023/12/30 13:29:21;;;;;;;10.48;2.40;;;;;;;;;;5035569;28;20029;-62
2023/12/30 13:31:48;;;;;;;7.60;2.05;;;;;;;;;;5015200;28;20609;-61
2023/12/30 13:34:15;;;;;;;6.97;1.90;;;;;;;;;;5050882;28;20115;-61
2023/12/30 13:36:40;;;;;;;4.97;1.90;;;;;;;;;;5050006;28;20041;-61
2023/12/30 13:39:06;;;;;;;8.63;2.28;;;;;;;;;;5051945;28;20060;-61
2023/12/30 13:41:37;;;;;;;13.82;2.45;;;;;;;;;;5050109;28;20082;-62
2023/12/30 13:44:04;;;;;;;10.13;2.30;;;;;;;;;;5065669;28;20078;-61
2023/12/30 13:51:36;;;;;;;8.70;2.00;;;;;;;;;;5071024;28;20097;-62
2023/12/30 13:54:02;;;;;;;5.43;2.10;;;;;;;;;;5068619;28;20051;-60
2023/12/30 13:56:28;;;;;;;7.20;2.15;;;;;;;;;;5036091;28;20124;-63
2023/12/30 13:58:57;;;;;;;6.22;1.90;;;;;;;;;;5050726;28;20080;-62
2023/12/30 14:01:23;;;;;;;6.10;1.85;;;;;;;;;;5050906;28;20037;-61
2023/12/30 14:03:51;;;;;;;7.47;2.65;;;;;;;;;;5049014;28;20144;-62
2023/12/30 14:06:20;;;;;;;10.88;2.65;;;;;;;;;;5049444;28;20543;-61
2023/12/30 14:08:45;;;;;;;5.57;1.90;;;;;;;;;;5049858;28;20026;-62
2023/12/30 14:11:33;;;;;;;8.45;1.98;;;;;;;;;;5050433;28;20039;-62
2023/12/30 14:13:59;;;;;;;5.80;1.65;;;;;;;;;;5031006;28;20056;-61
2023/12/30 14:16:25;;;;;;;8.52;1.77;;;;;;;;;;5045552;28;20033;-62
2023/12/30 14:18:50;;;;;;;11.25;2.00;;;;;;;;;;5029377;28;20034;-61
2023/12/30 14:21:17;;;;;;;5.70;2.00;;;;;;;;;;5047817;28;20177;-62
2023/12/30 14:23:43;;;;;;;8.88;1.98;;;;;;;;;;5011546;28;1098618;-61
2023/12/30 14:26:09;;;;;;;8.63;2.63;;;;;;;;;;5051574;28;20094;-62
2023/12/30 14:28:34;;;;;;;9.40;2.65;;;;;;;;;;5050255;28;20088;-62
2023/12/30 14:31:00;;;;;;;11.48;2.08;;;;;;;;;;5054109;28;20057;-61
2023/12/30 14:33:25;;;;;;;7.20;2.28;;;;;;;;;;5054296;28;20029;-61
2023/12/30 14:35:51;;;;;;;8.48;2.30;;;;;;;;;;5053683;28;20028;-62
2023/12/30 14:38:16;;;;;;;3.97;1.75;;;;;;;;;;5035477;28;20029;-63